sensor_id;sensor_type;location;lat;lon;timestamp;P1;durP1;ratioP1;P2;durP2;ratioP2
7231;SDS011;3657;49.630;11.018;2023-02-18T00:01:14;10.47;;;10.00;;
7231;SDS011;3657;49.630;11.018;2023-02-18T00:03:43;10.07;;;9.77;;
7231;SDS011;3657;49.630;11.018;2023-02-18T00:06:11;9.77;;;9.37;;
7231;SDS011;3657;49.630;11.018;2023-02-18T00:08:39;10.17;;;9.87;;
7231;SDS011;3657;49.630;11.018;2023-02-18T00:11:07;9.83;;;9.50;;
7231;SDS011;3657;49.630;11.018;2023-02-18T00:13:34;10.23;;;9.83;;
7231;SDS011;3657;49.630;11.018;2023-02-18T00:16:02;8.90;;;8.60;;
7231;SDS011;3657;49.630;11.018;2023-02-18T00:18:29;9.53;;;9.23;;
7231;SDS011;3657;49.630;11.018;2023-02-18T00:20:56;10.47;;;10.07;;
7231;SDS011;3657;49.630;11.018;2023-02-18T00:23:23;9.60;;;9.30;;
7231;SDS011;3657;49.630;11.018;2023-02-18T00:25:57;9.77;;;9.37;;
7231;SDS011;3657;49.630;11.018;2023-02-18T00:28:26;10.17;;;9.80;;
7231;SDS011;3657;49.630;11.018;2023-02-18T00:30:52;9.83;;;9.53;;
7231;SDS011;3657;49.630;11.018;2023-02-18T00:33:19;10.30;;;10.00;;
7231;SDS011;3657;49.630;11.018;2023-02-18T00:35:46;10.20;;;9.80;;
7231;SDS011;3657;49.630;11.018;2023-02-18T00:38:13;11.00;;;10.50;;
7231;SDS011;3657;49.630;11.018;2023-02-18T00:40:40;10.57;;;10.17;;
7231;SDS011;3657;49.630;11.018;2023-02-18T00:43:06;10.93;;;10.63;;
7231;SDS011;3657;49.630;11.018;2023-02-18T00:45:35;10.70;;;10.37;;
7231;SDS011;3657;49.630;11.018;2023-02-18T00:48:01;10.97;;;10.57;;
7231;SDS011;3657;49.630;11.018;2023-02-18T00:50:28;10.47;;;10.07;;
7231;SDS011;3657;49.630;11.018;2023-02-18T00:52:55;11.13;;;10.73;;
7231;SDS011;3657;49.630;11.018;2023-02-18T00:55:21;11.27;;;10.87;;
7231;SDS011;3657;49.630;11.018;2023-02-18T00:57:48;11.20;;;10.80;;
7231;SDS011;3657;49.630;11.018;2023-02-18T01:00:15;9.53;;;9.23;;
7231;SDS011;3657;49.630;11.018;2023-02-18T01:02:43;10.93;;;10.43;;
7231;SDS011;3657;49.630;11.018;2023-02-18T01:05:10;10.70;;;10.30;;
7231;SDS011;3657;49.630;11.018;2023-02-18T01:07:37;10.20;;;9.80;;
7231;SDS011;3657;49.630;11.018;2023-02-18T01:10:04;10.83;;;10.43;;
7231;SDS011;3657;49.630;11.018;2023-02-18T01:12:31;11.20;;;10.80;;
7231;SDS011;3657;49.630;11.018;2023-02-18T01:14:58;10.00;;;9.70;;
7231;SDS011;3657;49.630;11.018;2023-02-18T01:17:24;10.47;;;10.17;;
7231;SDS011;3657;49.630;11.018;2023-02-18T01:19:52;10.27;;;9.97;;
7231;SDS011;3657;49.630;11.018;2023-02-18T01:22:19;10.47;;;10.07;;
7231;SDS011;3657;49.630;11.018;2023-02-18T01:24:45;10.97;;;10.57;;
7231;SDS011;3657;49.630;11.018;2023-02-18T01:27:12;11.27;;;10.87;;
7231;SDS011;3657;49.630;11.018;2023-02-18T01:29:39;11.70;;;11.07;;
7231;SDS011;3657;49.630;11.018;2023-02-18T01:32:05;10.23;;;9.83;;
7231;SDS011;3657;49.630;11.018;2023-02-18T01:34:32;10.23;;;9.93;;
7231;SDS011;3657;49.630;11.018;2023-02-18T01:37:00;10.37;;;10.07;;
7231;SDS011;3657;49.630;11.018;2023-02-18T01:39:27;9.80;;;9.50;;
7231;SDS011;3657;49.630;11.018;2023-02-18T01:41:53;9.50;;;9.20;;
7231;SDS011;3657;49.630;11.018;2023-02-18T01:44:21;9.70;;;9.40;;
7231;SDS011;3657;49.630;11.018;2023-02-18T01:46:49;7.20;;;7.00;;
7231;SDS011;3657;49.630;11.018;2023-02-18T01:49:17;8.13;;;7.83;;
7231;SDS011;3657;49.630;11.018;2023-02-18T01:51:48;7.60;;;7.40;;
7231;SDS011;3657;49.630;11.018;2023-02-18T01:54:20;7.57;;;7.37;;
7231;SDS011;3657;49.630;11.018;2023-02-18T01:56:50;7.37;;;7.17;;
7231;SDS011;3657;49.630;11.018;2023-02-18T01:59:22;7.10;;;6.90;;
7231;SDS011;3657;49.630;11.018;2023-02-18T02:01:51;6.60;;;6.40;;
7231;SDS011;3657;49.630;11.018;2023-02-18T02:04:18;6.73;;;6.53;;
7231;SDS011;3657;49.630;11.018;2023-02-18T02:06:45;6.30;;;6.10;;
7231;SDS011;3657;49.630;11.018;2023-02-18T02:09:13;5.90;;;5.70;;
7231;SDS011;3657;49.630;11.018;2023-02-18T02:14:43;6.80;;;6.60;;
7231;SDS011;3657;49.630;11.018;2023-02-18T02:17:23;6.40;;;6.20;;
7231;SDS011;3657;49.630;11.018;2023-02-18T02:29:26;5.50;;;5.40;;
7231;SDS011;3657;49.630;11.018;2023-02-18T02:32:20;6.00;;;5.80;;
7231;SDS011;3657;49.630;11.018;2023-02-18T02:35:05;6.43;;;6.23;;
7231;SDS011;3657;49.630;11.018;2023-02-18T02:37:37;6.63;;;6.43;;
7231;SDS011;3657;49.630;11.018;2023-02-18T02:40:14;5.53;;;5.23;;
7231;SDS011;3657;49.630;11.018;2023-02-18T02:42:50;6.30;;;6.10;;
7231;SDS011;3657;49.630;11.018;2023-02-18T02:45:32;5.97;;;5.77;;
7231;SDS011;3657;49.630;11.018;2023-02-18T02:48:09;5.27;;;5.17;;
7231;SDS011;3657;49.630;11.018;2023-02-18T02:50:44;6.37;;;6.17;;
7231;SDS011;3657;49.630;11.018;2023-02-18T02:53:18;5.50;;;5.30;;
7231;SDS011;3657;49.630;11.018;2023-02-18T02:55:48;5.87;;;5.67;;
7231;SDS011;3657;49.630;11.018;2023-02-18T02:58:15;5.90;;;5.70;;
7231;SDS011;3657;49.630;11.018;2023-02-18T03:00:47;6.40;;;6.20;;
7231;SDS011;3657;49.630;11.018;2023-02-18T03:03:28;7.53;;;7.27;;
7231;SDS011;3657;49.630;11.018;2023-02-18T03:06:10;5.83;;;5.53;;
7231;SDS011;3657;49.630;11.018;2023-02-18T03:08:54;6.07;;;5.87;;
7231;SDS011;3657;49.630;11.018;2023-02-18T03:11:27;7.47;;;7.27;;
7231;SDS011;3657;49.630;11.018;2023-02-18T03:14:01;5.93;;;5.73;;
7231;SDS011;3657;49.630;11.018;2023-02-18T03:16:38;7.00;;;6.80;;
7231;SDS011;3657;49.630;11.018;2023-02-18T03:19:11;6.40;;;6.20;;
7231;SDS011;3657;49.630;11.018;2023-02-18T03:21:46;7.30;;;7.10;;
7231;SDS011;3657;49.630;11.018;2023-02-18T03:24:17;6.43;;;6.23;;
7231;SDS011;3657;49.630;11.018;2023-02-18T03:26:49;6.90;;;6.70;;
7231;SDS011;3657;49.630;11.018;2023-02-18T03:29:19;6.77;;;6.57;;
7231;SDS011;3657;49.630;11.018;2023-02-18T03:31:48;7.03;;;6.83;;
7231;SDS011;3657;49.630;11.018;2023-02-18T03:34:19;6.80;;;6.60;;
7231;SDS011;3657;49.630;11.018;2023-02-18T03:36:52;7.17;;;6.87;;
7231;SDS011;3657;49.630;11.018;2023-02-18T03:39:20;6.87;;;6.57;;
7231;SDS011;3657;49.630;11.018;2023-02-18T03:41:50;7.10;;;6.90;;
7231;SDS011;3657;49.630;11.018;2023-02-18T03:44:16;6.67;;;6.47;;
7231;SDS011;3657;49.630;11.018;2023-02-18T03:46:43;6.53;;;6.33;;
7231;SDS011;3657;49.630;11.018;2023-02-18T03:49:10;5.43;;;5.23;;
7231;SDS011;3657;49.630;11.018;2023-02-18T03:51:39;6.70;;;6.50;;
7231;SDS011;3657;49.630;11.018;2023-02-18T03:54:07;7.13;;;6.93;;
7231;SDS011;3657;49.630;11.018;2023-02-18T03:56:34;6.67;;;6.47;;
7231;SDS011;3657;49.630;11.018;2023-02-18T03:59:02;6.73;;;6.53;;
7231;SDS011;3657;49.630;11.018;2023-02-18T04:01:29;8.17;;;7.77;;
7231;SDS011;3657;49.630;11.018;2023-02-18T04:03:56;6.67;;;6.47;;
7231;SDS011;3657;49.630;11.018;2023-02-18T04:06:23;6.23;;;6.03;;
7231;SDS011;3657;49.630;11.018;2023-02-18T04:08:50;6.27;;;6.07;;
7231;SDS011;3657;49.630;11.018;2023-02-18T04:11:18;5.93;;;5.73;;
7231;SDS011;3657;49.630;11.018;2023-02-18T04:13:45;5.83;;;5.63;;
7231;SDS011;3657;49.630;11.018;2023-02-18T04:16:11;6.30;;;6.10;;
7231;SDS011;3657;49.630;11.018;2023-02-18T04:18:39;6.27;;;6.07;;
7231;SDS011;3657;49.630;11.018;2023-02-18T04:21:05;5.93;;;5.73;;
7231;SDS011;3657;49.630;11.018;2023-02-18T04:23:32;6.10;;;5.90;;
7231;SDS011;3657;49.630;11.018;2023-02-18T04:25:59;6.53;;;6.33;;
7231;SDS011;3657;49.630;11.018;2023-02-18T04:28:27;6.10;;;5.90;;
7231;SDS011;3657;49.630;11.018;2023-02-18T04:30:54;6.70;;;6.50;;
7231;SDS011;3657;49.630;11.018;2023-02-18T04:33:20;6.10;;;5.90;;
7231;SDS011;3657;49.630;11.018;2023-02-18T04:35:47;5.63;;;5.53;;
7231;SDS011;3657;49.630;11.018;2023-02-18T04:38:13;6.13;;;5.93;;
7231;SDS011;3657;49.630;11.018;2023-02-18T04:40:40;5.60;;;5.40;;
7231;SDS011;3657;49.630;11.018;2023-02-18T04:43:07;5.53;;;5.33;;
7231;SDS011;3657;49.630;11.018;2023-02-18T04:45:35;5.97;;;5.77;;
7231;SDS011;3657;49.630;11.018;2023-02-18T04:48:01;5.37;;;5.17;;
7231;SDS011;3657;49.630;11.018;2023-02-18T04:50:28;5.90;;;5.70;;
7231;SDS011;3657;49.630;11.018;2023-02-18T04:52:55;6.20;;;6.00;;
7231;SDS011;3657;49.630;11.018;2023-02-18T04:55:22;6.90;;;6.70;;
7231;SDS011;3657;49.630;11.018;2023-02-18T04:57:48;6.77;;;6.43;;
7231;SDS011;3657;49.630;11.018;2023-02-18T05:00:16;6.40;;;6.20;;
7231;SDS011;3657;49.630;11.018;2023-02-18T05:02:45;6.83;;;6.63;;
7231;SDS011;3657;49.630;11.018;2023-02-18T05:05:12;5.57;;;5.37;;
7231;SDS011;3657;49.630;11.018;2023-02-18T05:07:40;6.53;;;6.33;;
7231;SDS011;3657;49.630;11.018;2023-02-18T05:10:07;6.10;;;5.90;;
7231;SDS011;3657;49.630;11.018;2023-02-18T05:12:35;6.43;;;6.23;;
7231;SDS011;3657;49.630;11.018;2023-02-18T05:15:01;7.00;;;6.70;;
7231;SDS011;3657;49.630;11.018;2023-02-18T05:17:28;6.90;;;6.70;;
7231;SDS011;3657;49.630;11.018;2023-02-18T05:19:56;6.30;;;6.10;;
7231;SDS011;3657;49.630;11.018;2023-02-18T05:22:23;6.13;;;5.93;;
7231;SDS011;3657;49.630;11.018;2023-02-18T05:24:49;6.70;;;6.40;;
7231;SDS011;3657;49.630;11.018;2023-02-18T05:27:16;7.00;;;6.80;;
7231;SDS011;3657;49.630;11.018;2023-02-18T05:29:43;6.60;;;6.30;;
7231;SDS011;3657;49.630;11.018;2023-02-18T05:32:09;6.50;;;6.30;;
7231;SDS011;3657;49.630;11.018;2023-02-18T05:34:36;6.60;;;6.40;;
7231;SDS011;3657;49.630;11.018;2023-02-18T05:37:04;6.77;;;6.57;;
7231;SDS011;3657;49.630;11.018;2023-02-18T05:39:31;6.43;;;6.23;;
7231;SDS011;3657;49.630;11.018;2023-02-18T05:41:57;5.67;;;5.47;;
7231;SDS011;3657;49.630;11.018;2023-02-18T05:44:24;6.23;;;5.93;;
7231;SDS011;3657;49.630;11.018;2023-02-18T05:46:57;6.73;;;6.53;;
7231;SDS011;3657;49.630;11.018;2023-02-18T05:49:25;6.63;;;6.43;;
7231;SDS011;3657;49.630;11.018;2023-02-18T05:51:52;5.87;;;5.67;;
7231;SDS011;3657;49.630;11.018;2023-02-18T05:54:20;6.83;;;6.60;;
7231;SDS011;3657;49.630;11.018;2023-02-18T05:56:47;6.77;;;6.57;;
7231;SDS011;3657;49.630;11.018;2023-02-18T05:59:14;6.43;;;6.23;;
7231;SDS011;3657;49.630;11.018;2023-02-18T06:01:40;6.87;;;6.67;;
7231;SDS011;3657;49.630;11.018;2023-02-18T06:04:07;7.07;;;6.67;;
7231;SDS011;3657;49.630;11.018;2023-02-18T06:06:34;7.67;;;7.47;;
7231;SDS011;3657;49.630;11.018;2023-02-18T06:09:01;5.70;;;5.50;;
7231;SDS011;3657;49.630;11.018;2023-02-18T06:11:30;6.73;;;6.53;;
7231;SDS011;3657;49.630;11.018;2023-02-18T06:13:56;6.80;;;6.50;;
7231;SDS011;3657;49.630;11.018;2023-02-18T06:16:23;7.37;;;7.17;;
7231;SDS011;3657;49.630;11.018;2023-02-18T06:18:50;7.97;;;7.77;;
7231;SDS011;3657;49.630;11.018;2023-02-18T06:21:17;9.10;;;8.80;;
7231;SDS011;3657;49.630;11.018;2023-02-18T06:23:44;8.93;;;8.63;;
7231;SDS011;3657;49.630;11.018;2023-02-18T06:26:11;8.10;;;7.73;;
7231;SDS011;3657;49.630;11.018;2023-02-18T06:28:38;8.47;;;8.17;;
7231;SDS011;3657;49.630;11.018;2023-02-18T06:31:05;9.73;;;9.33;;
7231;SDS011;3657;49.630;11.018;2023-02-18T06:33:32;9.03;;;8.27;;
7231;SDS011;3657;49.630;11.018;2023-02-18T06:35:59;8.57;;;8.27;;
7231;SDS011;3657;49.630;11.018;2023-02-18T06:38:27;10.03;;;9.63;;
7231;SDS011;3657;49.630;11.018;2023-02-18T06:40:54;9.40;;;9.10;;
7231;SDS011;3657;49.630;11.018;2023-02-18T06:43:21;10.23;;;9.73;;
7231;SDS011;3657;49.630;11.018;2023-02-18T06:45:49;9.70;;;9.30;;
7231;SDS011;3657;49.630;11.018;2023-02-18T06:48:16;10.63;;;10.23;;
7231;SDS011;3657;49.630;11.018;2023-02-18T06:50:43;10.97;;;10.37;;
7231;SDS011;3657;49.630;11.018;2023-02-18T06:53:10;11.00;;;10.60;;
7231;SDS011;3657;49.630;11.018;2023-02-18T06:55:37;10.77;;;10.37;;
7231;SDS011;3657;49.630;11.018;2023-02-18T06:58:04;11.20;;;10.70;;
7231;SDS011;3657;49.630;11.018;2023-02-18T07:00:31;10.83;;;10.33;;
7231;SDS011;3657;49.630;11.018;2023-02-18T07:02:59;10.33;;;9.93;;
7231;SDS011;3657;49.630;11.018;2023-02-18T07:05:25;12.57;;;11.90;;
7231;SDS011;3657;49.630;11.018;2023-02-18T07:07:52;12.13;;;11.60;;
7231;SDS011;3657;49.630;11.018;2023-02-18T07:10:19;11.23;;;10.77;;
7231;SDS011;3657;49.630;11.018;2023-02-18T07:12:46;13.53;;;12.83;;
7231;SDS011;3657;49.630;11.018;2023-02-18T07:15:13;11.33;;;10.83;;
7231;SDS011;3657;49.630;11.018;2023-02-18T07:17:40;12.37;;;11.77;;
7231;SDS011;3657;49.630;11.018;2023-02-18T07:20:08;12.00;;;11.40;;
7231;SDS011;3657;49.630;11.018;2023-02-18T07:22:35;13.07;;;12.37;;
7231;SDS011;3657;49.630;11.018;2023-02-18T07:25:02;13.33;;;12.53;;
7231;SDS011;3657;49.630;11.018;2023-02-18T07:27:29;14.10;;;13.40;;
7231;SDS011;3657;49.630;11.018;2023-02-18T07:29:55;14.83;;;14.03;;
7231;SDS011;3657;49.630;11.018;2023-02-18T07:32:22;14.57;;;13.77;;
7231;SDS011;3657;49.630;11.018;2023-02-18T07:34:50;15.73;;;14.57;;
7231;SDS011;3657;49.630;11.018;2023-02-18T07:37:18;15.07;;;14.17;;
7231;SDS011;3657;49.630;11.018;2023-02-18T07:39:45;15.57;;;14.63;;
7231;SDS011;3657;49.630;11.018;2023-02-18T07:42:12;16.63;;;15.53;;
7231;SDS011;3657;49.630;11.018;2023-02-18T07:44:40;16.83;;;15.73;;
7231;SDS011;3657;49.630;11.018;2023-02-18T07:47:07;16.40;;;15.30;;
7231;SDS011;3657;49.630;11.018;2023-02-18T07:49:38;16.03;;;15.03;;
7231;SDS011;3657;49.630;11.018;2023-02-18T07:52:05;17.47;;;16.30;;
7231;SDS011;3657;49.630;11.018;2023-02-18T07:54:33;16.20;;;15.10;;
7231;SDS011;3657;49.630;11.018;2023-02-18T07:57:00;15.87;;;14.90;;
7231;SDS011;3657;49.630;11.018;2023-02-18T07:59:27;15.90;;;14.90;;
7231;SDS011;3657;49.630;11.018;2023-02-18T08:01:53;16.97;;;15.87;;
7231;SDS011;3657;49.630;11.018;2023-02-18T08:04:20;17.03;;;15.83;;
7231;SDS011;3657;49.630;11.018;2023-02-18T08:06:47;17.80;;;16.70;;
7231;SDS011;3657;49.630;11.018;2023-02-18T08:09:15;17.90;;;16.70;;
7231;SDS011;3657;49.630;11.018;2023-02-18T08:11:44;16.80;;;15.70;;
7231;SDS011;3657;49.630;11.018;2023-02-18T08:14:10;18.60;;;17.20;;
7231;SDS011;3657;49.630;11.018;2023-02-18T08:16:37;16.80;;;15.80;;
7231;SDS011;3657;49.630;11.018;2023-02-18T08:19:04;18.83;;;17.43;;
7231;SDS011;3657;49.630;11.018;2023-02-18T08:21:32;20.57;;;19.03;;
7231;SDS011;3657;49.630;11.018;2023-02-18T08:23:59;19.57;;;18.27;;
7231;SDS011;3657;49.630;11.018;2023-02-18T08:26:26;19.53;;;18.03;;
7231;SDS011;3657;49.630;11.018;2023-02-18T08:28:54;18.97;;;17.60;;
7231;SDS011;3657;49.630;11.018;2023-02-18T08:31:21;17.67;;;16.50;;
7231;SDS011;3657;49.630;11.018;2023-02-18T08:33:49;18.27;;;17.07;;
7231;SDS011;3657;49.630;11.018;2023-02-18T08:36:16;18.30;;;17.13;;
7231;SDS011;3657;49.630;11.018;2023-02-18T08:38:43;17.13;;;16.13;;
7231;SDS011;3657;49.630;11.018;2023-02-18T08:41:09;18.23;;;16.80;;
7231;SDS011;3657;49.630;11.018;2023-02-18T08:43:38;17.73;;;16.63;;
7231;SDS011;3657;49.630;11.018;2023-02-18T08:46:06;17.73;;;16.63;;
7231;SDS011;3657;49.630;11.018;2023-02-18T08:48:33;17.00;;;16.00;;
7231;SDS011;3657;49.630;11.018;2023-02-18T08:51:08;15.80;;;15.00;;
7231;SDS011;3657;49.630;11.018;2023-02-18T08:53:36;15.53;;;14.63;;
7231;SDS011;3657;49.630;11.018;2023-02-18T08:56:04;15.13;;;14.23;;
7231;SDS011;3657;49.630;11.018;2023-02-18T08:58:31;16.13;;;15.33;;
7231;SDS011;3657;49.630;11.018;2023-02-18T09:01:01;16.70;;;15.67;;
7231;SDS011;3657;49.630;11.018;2023-02-18T09:03:29;14.83;;;14.03;;
7231;SDS011;3657;49.630;11.018;2023-02-18T09:05:56;15.47;;;14.37;;
7231;SDS011;3657;49.630;11.018;2023-02-18T09:08:24;14.47;;;13.67;;
7231;SDS011;3657;49.630;11.018;2023-02-18T09:10:53;15.97;;;14.90;;
7231;SDS011;3657;49.630;11.018;2023-02-18T09:13:20;14.70;;;13.70;;
7231;SDS011;3657;49.630;11.018;2023-02-18T09:15:54;14.07;;;13.27;;
7231;SDS011;3657;49.630;11.018;2023-02-18T09:18:22;13.50;;;12.90;;
7231;SDS011;3657;49.630;11.018;2023-02-18T09:20:50;13.80;;;13.13;;
7231;SDS011;3657;49.630;11.018;2023-02-18T09:23:16;12.57;;;11.97;;
7231;SDS011;3657;49.630;11.018;2023-02-18T09:25:45;13.67;;;12.97;;
7231;SDS011;3657;49.630;11.018;2023-02-18T09:28:11;14.13;;;13.40;;
7231;SDS011;3657;49.630;11.018;2023-02-18T09:30:38;12.73;;;12.23;;
7231;SDS011;3657;49.630;11.018;2023-02-18T09:33:05;12.40;;;11.87;;
7231;SDS011;3657;49.630;11.018;2023-02-18T09:35:31;12.20;;;11.70;;
7231;SDS011;3657;49.630;11.018;2023-02-18T09:37:59;12.50;;;12.00;;
7231;SDS011;3657;49.630;11.018;2023-02-18T09:40:28;13.93;;;13.23;;
7231;SDS011;3657;49.630;11.018;2023-02-18T09:42:57;11.70;;;11.23;;
7231;SDS011;3657;49.630;11.018;2023-02-18T09:45:25;11.93;;;11.37;;
7231;SDS011;3657;49.630;11.018;2023-02-18T09:47:53;12.10;;;11.40;;
7231;SDS011;3657;49.630;11.018;2023-02-18T09:50:21;11.13;;;10.53;;
7231;SDS011;3657;49.630;11.018;2023-02-18T09:52:51;11.00;;;10.53;;
7231;SDS011;3657;49.630;11.018;2023-02-18T09:55:20;10.13;;;9.83;;
7231;SDS011;3657;49.630;11.018;2023-02-18T09:57:50;10.73;;;10.33;;
7231;SDS011;3657;49.630;11.018;2023-02-18T10:00:20;11.17;;;10.77;;
7231;SDS011;3657;49.630;11.018;2023-02-18T10:02:52;10.93;;;10.33;;
7231;SDS011;3657;49.630;11.018;2023-02-18T10:05:21;9.07;;;8.77;;
7231;SDS011;3657;49.630;11.018;2023-02-18T10:07:50;9.60;;;9.10;;
7231;SDS011;3657;49.630;11.018;2023-02-18T10:10:23;9.90;;;9.50;;
7231;SDS011;3657;49.630;11.018;2023-02-18T10:12:56;9.93;;;9.53;;
7231;SDS011;3657;49.630;11.018;2023-02-18T10:15:26;9.43;;;9.13;;
7231;SDS011;3657;49.630;11.018;2023-02-18T10:17:54;8.87;;;8.40;;
7231;SDS011;3657;49.630;11.018;2023-02-18T10:20:23;9.13;;;8.77;;
7231;SDS011;3657;49.630;11.018;2023-02-18T10:22:52;9.27;;;8.97;;
7231;SDS011;3657;49.630;11.018;2023-02-18T10:25:22;8.80;;;8.40;;
7231;SDS011;3657;49.630;11.018;2023-02-18T10:27:50;9.20;;;8.90;;
7231;SDS011;3657;49.630;11.018;2023-02-18T10:30:21;8.83;;;8.53;;
7231;SDS011;3657;49.630;11.018;2023-02-18T10:32:51;8.10;;;7.80;;
7231;SDS011;3657;49.630;11.018;2023-02-18T10:35:23;8.83;;;8.53;;
7231;SDS011;3657;49.630;11.018;2023-02-18T10:37:57;8.50;;;8.20;;
7231;SDS011;3657;49.630;11.018;2023-02-18T10:40:32;9.27;;;8.97;;
7231;SDS011;3657;49.630;11.018;2023-02-18T10:43:09;9.03;;;8.73;;
7231;SDS011;3657;49.630;11.018;2023-02-18T10:45:47;8.57;;;8.27;;
7231;SDS011;3657;49.630;11.018;2023-02-18T10:48:35;10.00;;;9.60;;
7231;SDS011;3657;49.630;11.018;2023-02-18T10:51:11;9.40;;;9.10;;
7231;SDS011;3657;49.630;11.018;2023-02-18T10:53:42;8.97;;;8.67;;
7231;SDS011;3657;49.630;11.018;2023-02-18T10:56:16;8.57;;;8.27;;
7231;SDS011;3657;49.630;11.018;2023-02-18T10:59:00;8.60;;;8.30;;
7231;SDS011;3657;49.630;11.018;2023-02-18T11:01:31;8.90;;;8.60;;
7231;SDS011;3657;49.630;11.018;2023-02-18T11:04:04;8.97;;;8.67;;
7231;SDS011;3657;49.630;11.018;2023-02-18T11:06:37;9.57;;;9.17;;
7231;SDS011;3657;49.630;11.018;2023-02-18T11:09:06;10.20;;;9.80;;
7231;SDS011;3657;49.630;11.018;2023-02-18T11:11:49;9.87;;;9.30;;
7231;SDS011;3657;49.630;11.018;2023-02-18T11:14:20;10.40;;;10.00;;
7231;SDS011;3657;49.630;11.018;2023-02-18T11:17:06;9.37;;;9.07;;
7231;SDS011;3657;49.630;11.018;2023-02-18T11:19:40;9.10;;;8.70;;
7231;SDS011;3657;49.630;11.018;2023-02-18T11:22:08;9.43;;;9.07;;
7231;SDS011;3657;49.630;11.018;2023-02-18T11:24:40;10.20;;;9.80;;
7231;SDS011;3657;49.630;11.018;2023-02-18T11:27:13;10.03;;;9.63;;
7231;SDS011;3657;49.630;11.018;2023-02-18T11:29:49;9.80;;;9.40;;
7231;SDS011;3657;49.630;11.018;2023-02-18T11:32:18;9.90;;;9.50;;
7231;SDS011;3657;49.630;11.018;2023-02-18T11:34:45;9.70;;;9.40;;
7231;SDS011;3657;49.630;11.018;2023-02-18T11:37:16;11.30;;;10.80;;
7231;SDS011;3657;49.630;11.018;2023-02-18T11:39:45;10.83;;;10.43;;
7231;SDS011;3657;49.630;11.018;2023-02-18T11:42:16;10.03;;;9.73;;
7231;SDS011;3657;49.630;11.018;2023-02-18T11:44:47;10.20;;;9.70;;
7231;SDS011;3657;49.630;11.018;2023-02-18T11:47:19;10.27;;;9.77;;
7231;SDS011;3657;49.630;11.018;2023-02-18T11:49:58;9.97;;;9.47;;
7231;SDS011;3657;49.630;11.018;2023-02-18T11:52:29;10.37;;;9.97;;
7231;SDS011;3657;49.630;11.018;2023-02-18T11:55:00;9.77;;;9.37;;
7231;SDS011;3657;49.630;11.018;2023-02-18T11:57:31;10.07;;;9.67;;
7231;SDS011;3657;49.630;11.018;2023-02-18T12:00:02;10.63;;;10.20;;
7231;SDS011;3657;49.630;11.018;2023-02-18T12:02:31;9.47;;;9.07;;
7231;SDS011;3657;49.630;11.018;2023-02-18T12:05:01;9.50;;;9.00;;
7231;SDS011;3657;49.630;11.018;2023-02-18T12:07:38;9.83;;;9.50;;
7231;SDS011;3657;49.630;11.018;2023-02-18T12:10:10;8.93;;;8.63;;
7231;SDS011;3657;49.630;11.018;2023-02-18T12:12:43;9.40;;;9.10;;
7231;SDS011;3657;49.630;11.018;2023-02-18T12:15:12;8.43;;;8.13;;
7231;SDS011;3657;49.630;11.018;2023-02-18T12:17:45;8.47;;;8.17;;
7231;SDS011;3657;49.630;11.018;2023-02-18T12:20:36;8.73;;;8.43;;
7231;SDS011;3657;49.630;11.018;2023-02-18T12:23:17;8.90;;;8.60;;
7231;SDS011;3657;49.630;11.018;2023-02-18T12:25:49;9.70;;;8.97;;
7231;SDS011;3657;49.630;11.018;2023-02-18T12:28:27;9.60;;;9.20;;
7231;SDS011;3657;49.630;11.018;2023-02-18T12:31:17;8.43;;;8.17;;
7231;SDS011;3657;49.630;11.018;2023-02-18T12:34:05;8.57;;;8.27;;
7231;SDS011;3657;49.630;11.018;2023-02-18T12:36:46;9.00;;;8.70;;
7231;SDS011;3657;49.630;11.018;2023-02-18T12:39:36;8.30;;;8.00;;
7231;SDS011;3657;49.630;11.018;2023-02-18T12:42:21;8.70;;;8.30;;
7231;SDS011;3657;49.630;11.018;2023-02-18T12:45:04;8.27;;;7.97;;
7231;SDS011;3657;49.630;11.018;2023-02-18T12:47:52;8.70;;;8.40;;
7231;SDS011;3657;49.630;11.018;2023-02-18T12:50:47;8.00;;;7.70;;
7231;SDS011;3657;49.630;11.018;2023-02-18T12:53:32;8.37;;;8.07;;
7231;SDS011;3657;49.630;11.018;2023-02-18T12:56:14;9.00;;;8.50;;
7231;SDS011;3657;49.630;11.018;2023-02-18T12:59:00;8.33;;;7.93;;
7231;SDS011;3657;49.630;11.018;2023-02-18T13:01:39;8.30;;;7.90;;
7231;SDS011;3657;49.630;11.018;2023-02-18T13:04:23;8.63;;;8.33;;
7231;SDS011;3657;49.630;11.018;2023-02-18T13:10:18;7.83;;;7.50;;
7231;SDS011;3657;49.630;11.018;2023-02-18T13:12:56;8.43;;;8.13;;
7231;SDS011;3657;49.630;11.018;2023-02-18T13:15:30;7.43;;;7.17;;
7231;SDS011;3657;49.630;11.018;2023-02-18T13:18:04;7.63;;;7.33;;
7231;SDS011;3657;49.630;11.018;2023-02-18T13:20:38;7.83;;;7.53;;
7231;SDS011;3657;49.630;11.018;2023-02-18T13:23:09;7.93;;;7.63;;
7231;SDS011;3657;49.630;11.018;2023-02-18T13:25:43;10.13;;;9.67;;
7231;SDS011;3657;49.630;11.018;2023-02-18T13:28:14;10.07;;;9.40;;
7231;SDS011;3657;49.630;11.018;2023-02-18T13:30:49;11.30;;;10.83;;
7231;SDS011;3657;49.630;11.018;2023-02-18T13:33:31;11.07;;;10.57;;
7231;SDS011;3657;49.630;11.018;2023-02-18T13:36:05;11.17;;;10.67;;
7231;SDS011;3657;49.630;11.018;2023-02-18T13:38:48;11.43;;;10.93;;
7231;SDS011;3657;49.630;11.018;2023-02-18T13:41:24;11.90;;;11.37;;
7231;SDS011;3657;49.630;11.018;2023-02-18T13:43:52;11.20;;;10.70;;
7231;SDS011;3657;49.630;11.018;2023-02-18T13:46:19;11.83;;;11.37;;
7231;SDS011;3657;49.630;11.018;2023-02-18T13:48:48;11.57;;;11.17;;
7231;SDS011;3657;49.630;11.018;2023-02-18T13:51:26;12.27;;;11.77;;
7231;SDS011;3657;49.630;11.018;2023-02-18T13:53:58;12.37;;;11.83;;
7231;SDS011;3657;49.630;11.018;2023-02-18T13:56:28;13.03;;;12.43;;
7231;SDS011;3657;49.630;11.018;2023-02-18T13:58:58;12.10;;;11.60;;
7231;SDS011;3657;49.630;11.018;2023-02-18T14:01:36;12.40;;;11.80;;
7231;SDS011;3657;49.630;11.018;2023-02-18T14:09:50;11.53;;;11.07;;
7231;SDS011;3657;49.630;11.018;2023-02-18T14:12:25;12.40;;;11.70;;
7231;SDS011;3657;49.630;11.018;2023-02-18T14:15:01;11.20;;;10.53;;
7231;SDS011;3657;49.630;11.018;2023-02-18T14:18:21;11.47;;;10.97;;
7231;SDS011;3657;49.630;11.018;2023-02-18T14:20:57;11.53;;;11.03;;
7231;SDS011;3657;49.630;11.018;2023-02-18T14:23:43;12.30;;;11.80;;
7231;SDS011;3657;49.630;11.018;2023-02-18T14:26:22;11.73;;;11.23;;
7231;SDS011;3657;49.630;11.018;2023-02-18T14:28:52;11.50;;;10.97;;
7231;SDS011;3657;49.630;11.018;2023-02-18T14:31:33;11.80;;;11.30;;
7231;SDS011;3657;49.630;11.018;2023-02-18T14:34:10;11.57;;;11.07;;
7231;SDS011;3657;49.630;11.018;2023-02-18T14:36:56;12.30;;;11.73;;
7231;SDS011;3657;49.630;11.018;2023-02-18T14:39:38;12.20;;;11.60;;
7231;SDS011;3657;49.630;11.018;2023-02-18T14:42:17;13.63;;;13.03;;
7231;SDS011;3657;49.630;11.018;2023-02-18T14:44:53;12.27;;;11.67;;
7231;SDS011;3657;49.630;11.018;2023-02-18T14:47:36;12.47;;;11.60;;
7231;SDS011;3657;49.630;11.018;2023-02-18T14:50:12;11.87;;;11.37;;
7231;SDS011;3657;49.630;11.018;2023-02-18T14:52:42;12.20;;;11.70;;
7231;SDS011;3657;49.630;11.018;2023-02-18T14:55:14;10.20;;;9.70;;
7231;SDS011;3657;49.630;11.018;2023-02-18T14:57:47;10.87;;;10.43;;
7231;SDS011;3657;49.630;11.018;2023-02-18T15:00:16;12.77;;;12.00;;
7231;SDS011;3657;49.630;11.018;2023-02-18T15:02:46;11.67;;;11.17;;
7231;SDS011;3657;49.630;11.018;2023-02-18T15:05:15;12.10;;;11.60;;
7231;SDS011;3657;49.630;11.018;2023-02-18T15:07:55;10.77;;;10.27;;
7231;SDS011;3657;49.630;11.018;2023-02-18T15:10:25;11.53;;;11.03;;
7231;SDS011;3657;49.630;11.018;2023-02-18T15:13:00;11.83;;;11.33;;
7231;SDS011;3657;49.630;11.018;2023-02-18T15:15:28;12.53;;;12.00;;
7231;SDS011;3657;49.630;11.018;2023-02-18T15:17:54;11.93;;;11.43;;
7231;SDS011;3657;49.630;11.018;2023-02-18T15:20:21;10.73;;;10.33;;
7231;SDS011;3657;49.630;11.018;2023-02-18T15:22:48;11.37;;;10.87;;
7231;SDS011;3657;49.630;11.018;2023-02-18T15:25:16;11.33;;;10.83;;
7231;SDS011;3657;49.630;11.018;2023-02-18T15:27:43;11.80;;;11.33;;
7231;SDS011;3657;49.630;11.018;2023-02-18T15:30:17;11.73;;;11.33;;